createdAt,value
2023-05-22T00:00:37.381Z,72.52
2023-05-22T00:03:05.094Z,72.70
2023-05-22T00:05:34.649Z,72.79
2023-05-22T00:08:01.697Z,72.80
2023-05-22T00:10:28.664Z,72.99
2023-05-22T00:12:55.691Z,73.18
2023-05-22T00:15:22.689Z,73.29
2023-05-22T00:17:50.047Z,73.40
2023-05-22T00:20:17.076Z,73.75
2023-05-22T00:22:45.774Z,74.04
2023-05-22T00:25:13.065Z,74.09
2023-05-22T00:27:39.973Z,74.18
2023-05-22T00:30:07.809Z,74.09
2023-05-22T00:32:34.975Z,74.22
2023-05-22T00:35:02.030Z,74.24
2023-05-22T00:37:29.283Z,74.13
2023-05-22T00:39:57.362Z,74.03
2023-05-22T00:42:24.835Z,73.90
2023-05-22T00:44:51.840Z,74.08
2023-05-22T00:47:18.895Z,73.90
2023-05-22T00:49:45.921Z,73.81
2023-05-22T00:52:13.033Z,73.95
2023-05-22T00:54:40.125Z,73.94
2023-05-22T00:57:07.319Z,73.68
2023-05-22T00:59:34.535Z,73.50
2023-05-22T01:02:01.798Z,73.48
2023-05-22T01:04:28.956Z,73.70
2023-05-22T01:06:55.966Z,73.89
2023-05-22T01:09:23.012Z,74.05
2023-05-22T01:12:01.011Z,74.11
2023-05-22T01:14:31.234Z,74.09
2023-05-22T01:17:00.267Z,74.12
2023-05-22T01:20:07.633Z,74.51
2023-05-22T01:22:47.794Z,74.77
2023-05-22T01:25:47.763Z,74.67
2023-05-22T01:28:53.495Z,74.58
2023-05-22T01:31:22.117Z,74.32
2023-05-22T01:33:53.334Z,74.04
2023-05-22T01:36:22.716Z,73.91
2023-05-22T01:38:49.812Z,73.93
2023-05-22T01:41:16.906Z,73.88
2023-05-22T01:43:44.811Z,73.87
2023-05-22T01:46:11.883Z,73.70
2023-05-22T01:48:38.792Z,73.82
2023-05-22T01:51:16.416Z,73.79
2023-05-22T01:53:56.718Z,73.81
2023-05-22T01:56:31.000Z,73.86
2023-05-22T01:59:07.897Z,74.07
2023-05-22T02:01:34.962Z,74.07
2023-05-22T02:04:02.093Z,74.23
2023-05-22T02:06:29.266Z,74.37
2023-05-22T02:08:56.172Z,74.61
2023-05-22T02:11:23.453Z,74.80
2023-05-22T02:13:50.519Z,74.99
2023-05-22T02:16:19.813Z,74.93
2023-05-22T02:18:46.879Z,74.86
2023-05-22T02:21:14.872Z,74.81
2023-05-22T02:23:42.030Z,74.97
2023-05-22T02:26:09.087Z,75.18
2023-05-22T02:28:36.049Z,75.47
2023-05-22T02:31:03.913Z,75.51
2023-05-22T02:33:31.062Z,75.58
2023-05-22T02:35:58.147Z,75.69
2023-05-22T02:38:25.143Z,75.92
2023-05-22T02:40:52.308Z,75.95
2023-05-22T02:43:19.245Z,76.17
2023-05-22T02:45:46.565Z,76.32
2023-05-22T02:48:13.587Z,76.40
2023-05-22T02:50:40.978Z,76.49
2023-05-22T02:53:08.573Z,76.45
2023-05-22T02:55:36.207Z,76.11
2023-05-22T02:58:03.369Z,76.29
2023-05-22T03:00:30.371Z,76.58
2023-05-22T03:02:57.426Z,76.55
2023-05-22T03:05:24.510Z,76.73
2023-05-22T03:07:53.029Z,76.68
2023-05-22T03:10:20.236Z,76.55
2023-05-22T03:12:48.633Z,76.32
2023-05-22T03:15:15.832Z,76.08
2023-05-22T03:17:43.549Z,76.16
2023-05-22T03:20:11.312Z,76.04
2023-05-22T03:22:38.361Z,75.94
2023-05-22T03:25:06.657Z,75.92
2023-05-22T03:27:33.590Z,76.06
2023-05-22T03:30:01.253Z,76.08
2023-05-22T03:32:29.270Z,76.05
2023-05-22T03:34:58.843Z,76.00
2023-05-22T03:37:25.987Z,75.98
2023-05-22T03:39:53.001Z,75.97
2023-05-22T03:42:24.882Z,75.78
2023-05-22T03:44:51.895Z,75.54
2023-05-22T03:47:19.260Z,75.45
2023-05-22T03:49:46.347Z,75.25
2023-05-22T03:52:13.326Z,75.37
2023-05-22T03:54:40.426Z,75.50
2023-05-22T03:57:07.543Z,75.68
2023-05-22T03:59:36.179Z,75.78
2023-05-22T04:02:03.256Z,75.78
2023-05-22T04:04:30.319Z,76.03
2023-05-22T04:06:58.360Z,76.17
2023-05-22T04:09:35.220Z,76.17
2023-05-22T04:12:02.916Z,76.74
2023-05-22T04:14:30.188Z,76.98
2023-05-22T04:16:57.154Z,77.10
2023-05-22T04:19:24.165Z,77.38
2023-05-22T04:21:51.233Z,77.58
2023-05-22T04:24:18.793Z,77.34
2023-05-22T04:26:45.881Z,77.06
2023-05-22T04:29:14.772Z,76.82
2023-05-22T04:31:43.015Z,76.53
2023-05-22T04:34:14.787Z,76.42
2023-05-22T04:36:45.512Z,76.29
2023-05-22T04:39:14.190Z,76.12
2023-05-22T04:41:41.313Z,76.22
2023-05-22T04:44:08.467Z,75.82
2023-05-22T04:46:36.207Z,75.91
2023-05-22T04:49:03.314Z,75.61
2023-05-22T04:51:31.791Z,75.40
2023-05-22T04:53:59.151Z,75.21
2023-05-22T04:56:36.401Z,75.49
2023-05-22T04:59:09.547Z,75.58
2023-05-22T05:01:38.713Z,75.83
2023-05-22T05:04:06.066Z,75.93
2023-05-22T05:06:34.997Z,76.01
2023-05-22T05:09:02.992Z,75.78
2023-05-22T05:11:30.445Z,75.63
2023-05-22T05:13:57.492Z,75.18
2023-05-22T05:16:26.536Z,74.62
2023-05-22T05:18:53.780Z,74.06
2023-05-22T05:21:21.531Z,73.59
2023-05-22T05:23:48.607Z,72.92
2023-05-22T05:26:15.788Z,72.48
2023-05-22T05:28:42.815Z,71.95
2023-05-22T05:31:10.348Z,71.16
2023-05-22T05:34:00.737Z,70.63
2023-05-22T05:36:31.749Z,70.40
2023-05-22T05:38:59.083Z,70.33
2023-05-22T05:41:27.111Z,69.41
2023-05-22T05:44:02.820Z,68.50
2023-05-22T05:46:32.187Z,67.89
2023-05-22T05:48:59.295Z,68.15
2023-05-22T05:51:27.499Z,67.35
2023-05-22T05:53:54.973Z,66.86
2023-05-22T05:56:22.774Z,66.48
2023-05-22T05:58:50.192Z,65.50
2023-05-22T06:01:36.027Z,65.00
2023-05-22T06:04:07.364Z,64.38
2023-05-22T06:06:39.506Z,63.20
2023-05-22T06:09:10.671Z,62.34
2023-05-22T06:11:56.506Z,61.71
2023-05-22T06:14:23.726Z,61.07
2023-05-22T06:16:50.915Z,60.80
2023-05-22T06:19:18.759Z,59.87
2023-05-22T06:21:46.325Z,59.93
2023-05-22T06:24:13.752Z,59.57
2023-05-22T06:26:42.204Z,58.52
2023-05-22T06:29:09.349Z,57.99
2023-05-22T06:31:38.735Z,57.35
2023-05-22T06:34:06.290Z,56.72
2023-05-22T06:36:34.872Z,56.33
2023-05-22T06:39:03.078Z,55.49
2023-05-22T06:41:49.032Z,55.28
2023-05-22T06:44:17.290Z,55.49
2023-05-22T06:46:44.286Z,55.37
2023-05-22T06:49:18.591Z,55.21
2023-05-22T06:51:48.205Z,55.28
2023-05-22T06:54:17.597Z,55.47
2023-05-22T06:56:49.607Z,56.07
2023-05-22T06:59:18.084Z,56.55
2023-05-22T07:02:04.018Z,56.75
2023-05-22T07:04:49.250Z,56.99
2023-05-22T07:07:21.373Z,57.13
2023-05-22T07:09:48.657Z,57.13
2023-05-22T07:12:16.289Z,57.17
2023-05-22T07:14:44.743Z,56.70
2023-05-22T07:17:12.494Z,56.59
2023-05-22T07:19:45.099Z,56.78
2023-05-22T07:22:12.820Z,56.88
2023-05-22T07:24:40.352Z,57.04
2023-05-22T07:27:10.969Z,57.52
2023-05-22T07:29:39.148Z,57.68
2023-05-22T07:32:07.188Z,58.08
2023-05-22T07:34:35.203Z,57.49
2023-05-22T07:37:09.109Z,57.22
2023-05-22T07:39:36.276Z,56.99
2023-05-22T07:42:05.049Z,56.72
2023-05-22T07:44:34.471Z,56.85
2023-05-22T07:47:02.149Z,57.04
2023-05-22T07:49:29.598Z,57.08
2023-05-22T07:51:56.632Z,57.05
2023-05-22T07:54:25.813Z,57.14
2023-05-22T07:56:53.455Z,57.44
2023-05-22T07:59:22.237Z,57.72
2023-05-22T08:01:50.292Z,57.86
2023-05-22T08:04:18.787Z,58.01
2023-05-22T08:06:46.269Z,58.61
2023-05-22T08:09:16.893Z,58.44
2023-05-22T08:11:44.764Z,58.36
2023-05-22T08:14:11.958Z,58.29
2023-05-22T08:16:39.385Z,58.30
2023-05-22T08:19:14.774Z,58.24
2023-05-22T08:21:42.183Z,58.44
2023-05-22T08:24:15.667Z,58.23
2023-05-22T08:26:43.875Z,57.66
2023-05-22T08:29:11.800Z,56.89
2023-05-22T08:31:38.868Z,55.83
2023-05-22T08:34:11.313Z,55.26
2023-05-22T08:36:39.866Z,55.04
2023-05-22T08:39:14.612Z,53.68
2023-05-22T08:41:44.722Z,52.84
2023-05-22T08:44:13.716Z,52.47
2023-05-22T08:46:45.535Z,51.97
2023-05-22T08:49:13.216Z,51.05
2023-05-22T08:51:44.813Z,50.66
2023-05-22T08:54:11.998Z,50.06
2023-05-22T08:56:49.186Z,49.30
2023-05-22T08:59:23.216Z,48.14
2023-05-22T09:01:53.684Z,47.46
2023-05-22T09:04:23.906Z,46.48
2023-05-22T09:06:51.775Z,46.55
2023-05-22T09:09:18.950Z,46.52
2023-05-22T09:11:46.074Z,46.22
2023-05-22T09:14:13.178Z,45.40
2023-05-22T09:16:47.623Z,44.70
2023-05-22T09:19:15.208Z,43.37
2023-05-22T09:21:51.246Z,42.17
2023-05-22T09:24:24.162Z,41.27
2023-05-22T09:26:53.428Z,40.92
2023-05-22T09:29:26.505Z,41.13
2023-05-22T09:32:00.183Z,41.61
2023-05-22T09:34:30.748Z,43.80
2023-05-22T09:37:03.321Z,47.39
2023-05-22T09:39:43.554Z,49.88
2023-05-22T09:42:13.120Z,50.93
2023-05-22T09:44:40.374Z,52.01
2023-05-22T09:47:07.831Z,53.12
2023-05-22T09:49:37.991Z,53.86
2023-05-22T09:52:05.147Z,54.49
2023-05-22T09:54:34.890Z,55.08
2023-05-22T09:57:04.028Z,55.61
2023-05-22T09:59:36.498Z,55.25
2023-05-22T10:02:11.049Z,54.59
2023-05-22T10:04:40.589Z,54.18
2023-05-22T10:07:08.101Z,54.25
2023-05-22T10:09:35.845Z,55.06
2023-05-22T10:12:04.711Z,55.11
2023-05-22T10:14:32.447Z,54.31
2023-05-22T10:17:03.690Z,53.07
2023-05-22T10:19:32.920Z,52.12
2023-05-22T10:22:00.718Z,51.53
2023-05-22T10:24:27.812Z,51.15
2023-05-22T10:26:54.951Z,50.80
2023-05-22T10:29:29.809Z,50.82
2023-05-22T10:32:19.768Z,50.75
2023-05-22T10:35:17.364Z,50.53
2023-05-22T10:37:49.858Z,49.83
2023-05-22T10:40:31.618Z,49.53
2023-05-22T10:43:02.873Z,49.27
2023-05-22T10:45:33.462Z,48.99
2023-05-22T10:48:04.747Z,49.26
2023-05-22T10:50:31.974Z,49.19
2023-05-22T10:53:19.113Z,49.30
2023-05-22T10:55:53.595Z,49.75
2023-05-22T10:58:28.855Z,49.69
2023-05-22T11:01:16.001Z,49.09
2023-05-22T11:03:58.885Z,49.09
2023-05-22T11:06:41.654Z,49.10
2023-05-22T11:09:26.028Z,49.20
2023-05-22T11:12:20.595Z,49.03
2023-05-22T11:14:53.838Z,48.71
2023-05-22T11:17:30.821Z,48.23
2023-05-22T11:20:09.225Z,48.62
2023-05-22T11:22:39.375Z,49.23
2023-05-22T11:25:19.751Z,49.79
2023-05-22T11:27:48.310Z,47.56
2023-05-22T11:30:16.149Z,44.74
2023-05-22T11:32:45.228Z,43.21
2023-05-22T11:35:17.501Z,42.61
2023-05-22T11:37:45.153Z,41.56
2023-05-22T11:40:15.237Z,41.00
2023-05-22T11:42:45.716Z,40.88
2023-05-22T11:45:13.002Z,40.89
2023-05-22T11:47:40.236Z,41.20
2023-05-22T11:50:11.456Z,41.20
2023-05-22T11:52:40.102Z,40.93
2023-05-22T11:55:08.095Z,41.48
2023-05-22T11:57:36.022Z,42.55
2023-05-22T12:00:06.654Z,42.22
2023-05-22T12:02:45.950Z,42.47
2023-05-22T12:05:14.260Z,41.99
2023-05-22T12:07:42.022Z,41.75
2023-05-22T12:10:12.104Z,41.94
2023-05-22T12:12:40.792Z,42.09
2023-05-22T12:15:08.858Z,42.07
2023-05-22T12:17:39.819Z,42.38
2023-05-22T12:20:12.944Z,42.49
2023-05-22T12:22:44.118Z,41.98
2023-05-22T12:25:17.019Z,41.91
2023-05-22T12:27:46.097Z,41.35
2023-05-22T12:30:14.704Z,41.21
2023-05-22T12:32:47.989Z,41.81
2023-05-22T12:35:20.211Z,42.73
2023-05-22T12:37:52.216Z,43.25
2023-05-22T12:40:19.990Z,43.70
2023-05-22T12:42:48.423Z,44.68
2023-05-22T12:45:18.213Z,45.77
2023-05-22T12:47:52.315Z,47.07
2023-05-22T12:50:20.516Z,47.80
2023-05-22T12:52:51.048Z,47.87
2023-05-22T12:55:18.625Z,48.60
2023-05-22T12:57:46.662Z,49.63
2023-05-22T13:00:14.518Z,50.85
2023-05-22T13:02:42.930Z,51.52
2023-05-22T13:05:12.656Z,51.69
2023-05-22T13:07:40.349Z,51.78
2023-05-22T13:10:13.426Z,51.61
2023-05-22T13:12:48.668Z,51.89
2023-05-22T13:15:16.381Z,50.70
2023-05-22T13:17:44.157Z,50.38
2023-05-22T13:20:11.951Z,50.64
2023-05-22T13:22:39.937Z,50.75
2023-05-22T13:25:08.016Z,50.99
2023-05-22T13:27:35.670Z,51.31
2023-05-22T13:30:03.569Z,51.07
2023-05-22T13:32:32.935Z,51.25
2023-05-22T13:35:01.098Z,51.54
2023-05-22T13:37:28.878Z,51.99
2023-05-22T13:39:56.482Z,52.16
2023-05-22T13:42:24.092Z,52.16
2023-05-22T13:44:54.813Z,51.76
2023-05-22T13:47:25.869Z,51.58
2023-05-22T13:49:56.603Z,51.68
2023-05-22T13:52:25.643Z,52.24
2023-05-22T13:54:53.291Z,52.31
2023-05-22T13:57:20.886Z,52.44
2023-05-22T13:59:48.577Z,52.33
2023-05-22T14:02:16.427Z,52.21
2023-05-22T14:04:45.452Z,52.39
2023-05-22T14:07:18.781Z,52.37
2023-05-22T14:09:46.379Z,52.40
2023-05-22T14:12:14.463Z,52.58
2023-05-22T14:14:48.475Z,52.53
2023-05-22T14:17:24.621Z,52.47
2023-05-22T14:19:57.115Z,52.42
2023-05-22T14:22:38.642Z,52.59
2023-05-22T14:25:16.152Z,52.60
2023-05-22T14:27:43.863Z,52.78
2023-05-22T14:30:13.830Z,53.11
2023-05-22T14:32:41.540Z,53.71
2023-05-22T14:35:12.884Z,54.35
2023-05-22T14:37:40.623Z,55.03
2023-05-22T14:40:10.036Z,55.22
2023-05-22T14:42:37.717Z,55.32
2023-05-22T14:45:07.971Z,55.33
2023-05-22T14:47:35.860Z,54.98
2023-05-22T14:50:18.367Z,54.55
2023-05-22T14:52:47.022Z,54.88
2023-05-22T14:55:17.964Z,55.63
2023-05-22T14:57:46.579Z,56.12
2023-05-22T15:03:12.592Z,57.01
2023-05-22T15:05:40.565Z,57.48
2023-05-22T15:08:08.473Z,58.09
2023-05-22T15:10:37.041Z,58.72
2023-05-22T15:13:04.764Z,59.31
2023-05-22T15:15:32.646Z,58.87
2023-05-22T15:18:02.936Z,58.75
2023-05-22T15:20:31.382Z,58.69
2023-05-22T15:22:59.673Z,59.04
2023-05-22T15:25:27.403Z,60.70
2023-05-22T15:27:54.900Z,61.52
2023-05-22T15:30:23.773Z,62.00
2023-05-22T15:32:51.555Z,62.99
2023-05-22T15:35:19.592Z,63.59
2023-05-22T15:37:47.153Z,63.02
2023-05-22T15:40:17.547Z,63.10
2023-05-22T15:42:45.335Z,63.27
2023-05-22T15:45:12.889Z,63.46
2023-05-22T15:47:41.457Z,63.79
2023-05-22T15:50:09.447Z,64.02
2023-05-22T15:52:37.573Z,64.30
2023-05-22T15:55:05.417Z,64.30
2023-05-22T15:57:34.257Z,63.97
2023-05-22T16:00:02.079Z,64.80
2023-05-22T16:02:32.030Z,65.18
2023-05-22T16:04:59.572Z,65.43
2023-05-22T16:07:27.185Z,66.00
2023-05-22T16:09:59.506Z,66.45
2023-05-22T16:12:30.057Z,66.38
2023-05-22T16:15:00.117Z,66.18
2023-05-22T16:17:28.162Z,66.34
2023-05-22T16:19:55.762Z,66.24
2023-05-22T16:22:24.779Z,65.78
2023-05-22T16:24:56.788Z,66.22
2023-05-22T16:27:24.320Z,66.46
2023-05-22T16:29:51.737Z,66.39
2023-05-22T16:32:19.597Z,66.27
2023-05-22T16:34:47.037Z,65.89
2023-05-22T16:37:15.279Z,66.12
2023-05-22T16:39:46.421Z,66.53
2023-05-22T16:42:16.599Z,66.35
2023-05-22T16:44:44.329Z,66.18
2023-05-22T16:47:12.403Z,66.00
2023-05-22T16:49:40.909Z,65.71
2023-05-22T16:52:08.428Z,65.54
2023-05-22T16:54:37.129Z,65.34
2023-05-22T16:57:05.820Z,65.21
2023-05-22T16:59:33.603Z,65.28
2023-05-22T17:02:01.418Z,65.18
2023-05-22T17:04:29.096Z,65.22
2023-05-22T17:06:56.715Z,64.60
2023-05-22T17:09:24.226Z,64.17
2023-05-22T17:11:51.804Z,63.83
2023-05-22T17:14:21.886Z,63.53
2023-05-22T17:16:51.359Z,63.38
2023-05-22T17:19:19.096Z,63.42
2023-05-22T17:21:46.909Z,63.04
2023-05-22T17:24:14.911Z,63.22
2023-05-22T17:26:44.678Z,63.33
2023-05-22T17:29:12.379Z,63.75
2023-05-22T17:31:39.968Z,64.01
2023-05-22T17:34:08.219Z,64.42
2023-05-22T17:36:36.324Z,65.15
2023-05-22T17:39:04.470Z,66.08
2023-05-22T17:41:38.924Z,67.16
2023-05-22T17:44:10.582Z,68.21
2023-05-22T17:46:40.402Z,69.24
2023-05-22T17:49:08.329Z,70.18
2023-05-22T17:51:36.526Z,71.07
2023-05-22T17:54:04.150Z,71.61
2023-05-22T17:56:31.586Z,71.96
2023-05-22T17:58:59.255Z,72.20
2023-05-22T18:01:28.854Z,72.24
2023-05-22T18:03:56.587Z,72.03
2023-05-22T18:06:24.585Z,72.00
2023-05-22T18:08:52.200Z,72.50
2023-05-22T18:11:19.839Z,73.59
2023-05-22T18:13:47.528Z,74.49
2023-05-22T18:16:19.095Z,74.94
2023-05-22T18:18:46.983Z,75.51
2023-05-22T18:21:14.497Z,75.89
2023-05-22T18:23:42.289Z,75.76
2023-05-22T18:26:09.864Z,75.82
2023-05-22T18:28:39.790Z,75.76
2023-05-22T18:31:08.298Z,75.32
2023-05-22T18:33:36.154Z,75.23
2023-05-22T18:36:04.576Z,75.10
2023-05-22T18:38:32.348Z,75.22
2023-05-22T18:40:59.946Z,75.38
2023-05-22T18:43:28.460Z,75.25
2023-05-22T18:45:57.431Z,75.11
2023-05-22T18:48:25.288Z,74.78
2023-05-22T18:50:53.150Z,74.61
2023-05-22T18:53:22.158Z,74.29
2023-05-22T18:55:49.714Z,73.81
2023-05-22T18:58:17.288Z,73.36
2023-05-22T19:00:45.798Z,72.65
2023-05-22T19:03:14.301Z,72.02
2023-05-22T19:05:41.848Z,71.59
2023-05-22T19:08:09.709Z,71.12
2023-05-22T19:10:37.440Z,70.65
2023-05-22T19:13:05.696Z,70.52
2023-05-22T19:15:37.829Z,70.20
2023-05-22T19:18:05.561Z,69.98
2023-05-22T19:20:33.637Z,70.18
2023-05-22T19:23:01.152Z,70.21
2023-05-22T19:25:28.686Z,70.30
2023-05-22T19:27:56.151Z,70.39
2023-05-22T19:30:23.943Z,70.63
2023-05-22T19:32:56.031Z,70.83
2023-05-22T19:35:23.833Z,71.25
2023-05-22T19:37:51.285Z,71.62
2023-05-22T19:40:18.882Z,71.85
2023-05-22T19:42:46.547Z,72.22
2023-05-22T19:45:14.087Z,72.55
2023-05-22T19:47:41.621Z,73.19
2023-05-22T19:50:09.535Z,73.79
2023-05-22T19:52:37.059Z,74.34
2023-05-22T19:55:05.481Z,74.95
2023-05-22T19:57:33.046Z,75.54
2023-05-22T20:00:00.636Z,75.81
2023-05-22T20:02:28.226Z,75.94
2023-05-22T20:04:55.796Z,76.01
2023-05-22T20:07:23.352Z,76.16
2023-05-22T20:09:52.448Z,76.36
2023-05-22T20:12:20.048Z,76.92
2023-05-22T20:14:47.585Z,77.34
2023-05-22T20:17:15.178Z,77.81
2023-05-22T20:19:45.269Z,77.87
2023-05-22T20:22:12.877Z,78.26
2023-05-22T20:24:40.340Z,78.47
2023-05-22T20:27:07.784Z,78.75
2023-05-22T20:29:35.527Z,78.92
2023-05-22T20:32:03.268Z,79.19
2023-05-22T20:34:32.086Z,79.36
2023-05-22T20:37:00.213Z,79.62
2023-05-22T20:39:28.353Z,79.71
2023-05-22T20:41:55.884Z,79.65
2023-05-22T20:44:25.890Z,79.69
2023-05-22T20:46:54.224Z,79.80
2023-05-22T20:49:21.819Z,79.75
2023-05-22T20:51:50.273Z,79.71
2023-05-22T20:54:18.108Z,79.58
2023-05-22T20:56:45.606Z,79.62
2023-05-22T20:59:13.153Z,79.75
2023-05-22T21:01:40.732Z,79.59
2023-05-22T21:04:08.451Z,79.47
2023-05-22T21:06:36.170Z,79.51
2023-05-22T21:09:03.874Z,79.44
2023-05-22T21:11:31.330Z,79.41
2023-05-22T21:13:58.817Z,79.44
2023-05-22T21:16:26.302Z,79.56
2023-05-22T21:18:54.020Z,79.68
2023-05-22T21:21:21.634Z,79.74
2023-05-22T21:23:49.960Z,79.72
2023-05-22T21:26:18.107Z,79.64
2023-05-22T21:28:45.823Z,79.61
2023-05-22T21:31:13.371Z,79.56
2023-05-22T21:33:40.876Z,79.47
2023-05-22T21:36:08.488Z,79.16
2023-05-22T21:38:36.106Z,79.00
2023-05-22T21:41:03.872Z,78.99
2023-05-22T21:43:31.406Z,78.76
2023-05-22T21:45:58.831Z,78.86
2023-05-22T21:48:26.752Z,78.78
2023-05-22T21:50:54.310Z,78.73
2023-05-22T21:53:22.581Z,78.54
2023-05-22T21:55:50.551Z,78.41
2023-05-22T21:58:18.017Z,78.54
2023-05-22T22:00:45.558Z,78.86
2023-05-22T22:03:13.313Z,78.45
2023-05-22T22:05:41.117Z,78.67
2023-05-22T22:08:08.598Z,78.72
2023-05-22T22:10:36.671Z,78.85
2023-05-22T22:13:04.615Z,79.04
2023-05-22T22:15:32.365Z,79.20
2023-05-22T22:18:02.583Z,79.22
2023-05-22T22:23:07.845Z,79.29
2023-05-22T22:25:36.112Z,79.23
2023-05-22T22:28:03.564Z,79.16
2023-05-22T22:30:31.376Z,79.04
2023-05-22T22:32:59.491Z,78.93
2023-05-22T22:35:27.118Z,78.63
2023-05-22T22:37:54.571Z,78.50
2023-05-22T22:40:22.464Z,78.09
2023-05-22T22:42:50.675Z,77.94
2023-05-22T22:45:18.206Z,77.91
2023-05-22T22:47:46.063Z,77.83
2023-05-22T22:50:13.540Z,78.06
2023-05-22T22:52:46.048Z,78.21
2023-05-22T22:55:13.733Z,78.52
2023-05-22T22:57:44.982Z,78.65
2023-05-22T23:00:13.615Z,78.75
2023-05-22T23:02:41.345Z,78.93
2023-05-22T23:05:09.344Z,78.98
2023-05-22T23:07:36.924Z,78.96
2023-05-22T23:10:04.811Z,79.05
2023-05-22T23:12:35.345Z,79.32
2023-05-22T23:15:03.335Z,79.55
2023-05-22T23:17:30.958Z,79.63
2023-05-22T23:19:58.745Z,80.20
2023-05-22T23:22:26.213Z,80.44
2023-05-22T23:24:53.739Z,80.43
2023-05-22T23:27:22.062Z,80.80
2023-05-22T23:29:49.556Z,81.07
2023-05-22T23:32:17.025Z,81.10
2023-05-22T23:34:44.565Z,81.22
2023-05-22T23:37:12.027Z,81.09
2023-05-22T23:39:39.533Z,81.35
2023-05-22T23:42:09.925Z,81.29
2023-05-22T23:44:37.579Z,81.72
2023-05-22T23:47:06.875Z,82.01
2023-05-22T23:49:34.626Z,82.09
2023-05-22T23:52:02.153Z,82.19
2023-05-22T23:54:30.562Z,82.33
2023-05-22T23:56:58.638Z,82.55
2023-05-22T23:59:26.187Z,82.83
